Time;durP1;ratioP1;P1;durP2;ratioP2;P2;SDS_P1;SDS_P2;PMS_P1;PMS_P2;Temp;Humidity;BMP_temperature;BMP_pressure;BME280_temperature;BME280_humidity;BME280_pressure;Samples;Min_cycle;Max_cycle;Signal;HPM_P1;HPM_P2
2022/02/21 00:00:15;;;;;;;9.65;4.82;;;4.30;99.90;;;;;;5070231;28;20180;-69
2022/02/21 00:02:43;;;;;;;9.88;4.35;;;4.30;99.90;;;;;;5070005;28;20204;-69
2022/02/21 00:05:12;;;;;;;12.07;5.63;;;4.20;99.90;;;;;;5070172;28;20192;-69
2022/02/21 00:07:38;;;;;;;7.47;4.60;;;4.20;99.90;;;;;;5069930;28;20192;-69
2022/02/21 00:10:07;;;;;;;9.63;5.18;;;4.20;99.90;;;;;;5070031;28;20161;-69
2022/02/21 00:12:33;;;;;;;10.55;5.90;;;4.10;99.90;;;;;;5070046;28;20196;-68
2022/02/21 00:14:59;;;;;;;14.55;6.20;;;4.10;99.90;;;;;;5074503;28;20179;-68
2022/02/21 00:17:25;;;;;;;10.18;6.22;;;4.10;99.90;;;;;;5088098;28;20184;-69
2022/02/21 00:19:50;;;;;;;15.77;7.65;;;4.10;99.90;;;;;;5088337;28;20215;-68
2022/02/21 00:22:16;;;;;;;12.68;6.72;;;4.10;99.90;;;;;;5067947;28;20545;-68
2022/02/21 00:24:42;;;;;;;12.45;7.30;;;4.10;99.90;;;;;;5068955;28;20161;-70
2022/02/21 00:27:08;;;;;;;15.57;7.43;;;4.00;99.90;;;;;;5068999;28;20161;-68
2022/02/21 00:29:34;;;;;;;9.93;6.25;;;4.00;99.90;;;;;;5068125;28;20172;-69
2022/02/21 00:32:00;;;;;;;10.45;6.65;;;4.00;99.90;;;;;;5069751;28;20191;-70
2022/02/21 00:34:26;;;;;;;11.30;6.80;;;3.90;99.90;;;;;;5069684;28;20200;-69
2022/02/21 00:36:52;;;;;;;10.30;6.88;;;3.90;99.90;;;;;;5069716;28;20161;-69
2022/02/21 00:39:18;;;;;;;13.23;6.75;;;3.90;99.90;;;;;;5069603;28;20192;-70
2022/02/21 00:41:43;;;;;;;10.85;6.30;;;3.90;99.90;;;;;;5069617;28;20165;-70
2022/02/21 00:44:10;;;;;;;7.50;5.13;;;4.00;99.90;;;;;;5069538;28;20196;-69
2022/02/21 00:46:35;;;;;;;8.00;5.90;;;3.90;99.90;;;;;;5069583;28;20152;-69
2022/02/21 00:49:03;;;;;;;13.13;7.13;;;3.90;99.90;;;;;;5069504;28;20193;-69
2022/02/21 00:51:29;;;;;;;12.32;6.95;;;4.00;99.90;;;;;;5069507;28;20180;-70
2022/02/21 00:53:56;;;;;;;11.27;6.68;;;3.90;99.90;;;;;;5069451;28;20197;-70
2022/02/21 00:56:22;;;;;;;10.13;5.93;;;3.90;99.90;;;;;;5068159;28;20180;-69
2022/02/21 00:58:48;;;;;;;11.05;6.43;;;3.80;99.90;;;;;;5069412;28;20188;-70
2022/02/21 01:01:14;;;;;;;11.35;6.35;;;3.80;99.90;;;;;;5069320;28;20171;-69
2022/02/21 01:03:40;;;;;;;12.30;5.90;;;3.80;99.90;;;;;;5068924;28;20238;-70
2022/02/21 01:06:06;;;;;;;10.43;6.85;;;3.80;99.90;;;;;;5069466;28;20155;-70
2022/02/21 01:08:31;;;;;;;13.23;6.25;;;3.80;99.90;;;;;;5069184;28;20165;-69
2022/02/21 01:10:57;;;;;;;12.90;7.93;;;3.70;99.90;;;;;;5069288;28;20157;-70
2022/02/21 01:13:23;;;;;;;15.18;7.25;;;3.70;99.90;;;;;;5069113;28;20226;-69
2022/02/21 01:15:49;;;;;;;11.85;6.25;;;3.70;99.90;;;;;;5070276;28;20653;-69
2022/02/21 01:18:15;;;;;;;14.82;6.82;;;3.70;99.90;;;;;;5084399;28;20179;-70
2022/02/21 01:20:41;;;;;;;12.13;6.68;;;3.70;99.90;;;;;;5081498;28;20164;-70
2022/02/21 01:23:07;;;;;;;13.63;7.28;;;3.70;99.90;;;;;;5069155;28;20193;-70
2022/02/21 01:25:33;;;;;;;16.20;8.02;;;3.80;99.90;;;;;;5069145;28;20157;-69
2022/02/21 01:27:59;;;;;;;14.95;6.82;;;3.80;99.90;;;;;;5069075;28;20152;-69
2022/02/21 01:30:25;;;;;;;12.43;6.10;;;3.80;99.90;;;;;;5069070;28;20180;-69
2022/02/21 01:32:51;;;;;;;16.02;7.15;;;3.80;99.90;;;;;;5068925;28;20193;-69
2022/02/21 01:35:17;;;;;;;12.93;7.28;;;3.90;99.90;;;;;;5069133;28;20160;-69
2022/02/21 01:37:43;;;;;;;9.90;6.38;;;3.80;99.90;;;;;;5068889;28;20231;-69
2022/02/21 01:40:10;;;;;;;12.57;6.78;;;3.80;99.90;;;;;;5068914;28;20188;-69
2022/02/21 01:42:37;;;;;;;12.27;6.80;;;3.80;99.90;;;;;;5068855;28;20244;-69
2022/02/21 01:45:05;;;;;;;10.00;6.60;;;3.70;99.90;;;;;;5068960;28;20157;-69
2022/02/21 01:47:31;;;;;;;10.57;6.40;;;3.80;99.90;;;;;;5068846;28;20179;-69
2022/02/21 01:49:57;;;;;;;10.65;6.07;;;3.80;99.90;;;;;;5068861;28;20168;-70
2022/02/21 01:52:24;;;;;;;9.00;5.50;;;3.70;99.90;;;;;;5068929;28;20160;-70
2022/02/21 01:54:50;;;;;;;10.30;4.70;;;3.70;99.90;;;;;;5067514;28;20188;-69
2022/02/21 01:57:17;;;;;;;7.45;4.95;;;3.70;99.90;;;;;;5068774;28;20160;-69
2022/02/21 01:59:44;;;;;;;10.60;4.85;;;3.80;99.90;;;;;;5068739;28;20188;-69
2022/02/21 02:02:10;;;;;;;10.60;4.53;;;3.70;99.90;;;;;;5068633;28;20189;-69
2022/02/21 02:04:37;;;;;;;11.70;4.65;;;3.70;99.90;;;;;;5068577;28;20220;-69
2022/02/21 02:07:05;;;;;;;8.10;4.40;;;3.70;99.90;;;;;;5068658;28;20528;-69
2022/02/21 02:09:31;;;;;;;7.00;4.28;;;3.70;99.90;;;;;;5067359;28;20207;-69
2022/02/21 02:11:57;;;;;;;9.18;6.10;;;3.70;99.90;;;;;;5068756;28;20157;-69
2022/02/21 02:14:27;;;;;;;5.80;4.55;;;3.60;99.90;;;;;;5068546;28;20214;-70
2022/02/21 02:16:52;;;;;;;7.07;4.22;;;3.50;99.90;;;;;;5071677;28;20190;-69
2022/02/21 02:19:18;;;;;;;8.05;4.35;;;3.40;99.90;;;;;;5088425;28;20195;-70
2022/02/21 02:21:46;;;;;;;8.45;4.72;;;3.40;99.90;;;;;;5072209;28;20222;-70
2022/02/21 02:24:12;;;;;;;7.32;4.63;;;3.50;99.90;;;;;;5068537;28;20228;-69
2022/02/21 02:26:40;;;;;;;7.47;4.75;;;3.50;99.90;;;;;;5069026;28;20236;-69
2022/02/21 02:29:06;;;;;;;7.40;3.72;;;3.50;99.90;;;;;;5072272;28;20160;-70
2022/02/21 02:31:32;;;;;;;11.40;5.32;;;3.60;99.90;;;;;;5072097;28;20221;-69
2022/02/21 02:33:58;;;;;;;5.53;3.90;;;3.60;99.90;;;;;;5072005;28;20204;-69
2022/02/21 02:36:24;;;;;;;6.90;4.35;;;3.60;99.90;;;;;;5072106;28;20173;-70
2022/02/21 02:38:50;;;;;;;6.65;3.90;;;3.70;99.90;;;;;;5071889;28;20271;-69
2022/02/21 02:41:16;;;;;;;8.20;4.95;;;3.70;99.90;;;;;;5071952;28;20195;-70
2022/02/21 02:43:42;;;;;;;10.88;4.88;;;3.60;99.90;;;;;;5071812;28;20209;-69
2022/02/21 02:46:08;;;;;;;8.90;3.90;;;3.60;99.90;;;;;;5071863;28;20157;-69
2022/02/21 02:48:34;;;;;;;6.40;3.72;;;3.60;99.90;;;;;;5071759;28;20220;-69
2022/02/21 02:51:00;;;;;;;5.00;3.50;;;3.50;99.90;;;;;;5070492;28;20242;-69
2022/02/21 02:53:27;;;;;;;5.50;3.90;;;3.50;99.90;;;;;;5071592;28;20193;-69
2022/02/21 02:55:53;;;;;;;11.80;5.00;;;3.50;99.90;;;;;;5071767;28;20164;-69
2022/02/21 02:58:19;;;;;;;10.20;4.72;;;3.40;99.90;;;;;;5071588;28;20175;-69
2022/02/21 03:00:47;;;;;;;7.00;4.15;;;3.40;99.90;;;;;;5070160;28;20233;-69
2022/02/21 03:03:14;;;;;;;10.57;4.93;;;3.40;99.90;;;;;;5069880;28;20224;-69
2022/02/21 03:05:41;;;;;;;13.85;7.32;;;3.40;99.90;;;;;;5070283;28;20161;-68
2022/02/21 03:08:07;;;;;;;7.60;4.30;;;3.40;99.90;;;;;;5071298;28;20153;-69
2022/02/21 03:10:33;;;;;;;5.93;3.80;;;3.40;99.90;;;;;;5071297;28;20184;-69
2022/02/21 03:12:59;;;;;;;8.38;4.40;;;3.50;99.90;;;;;;5071334;28;20185;-69
2022/02/21 03:15:24;;;;;;;5.30;4.57;;;3.50;99.90;;;;;;5071312;28;20587;-69
2022/02/21 03:17:50;;;;;;;8.88;4.60;;;3.50;99.90;;;;;;5071080;28;20204;-69
2022/02/21 03:20:16;;;;;;;9.27;5.03;;;3.60;99.90;;;;;;5081707;28;20195;-69
2022/02/21 03:22:44;;;;;;;8.38;4.28;;;3.60;99.90;;;;;;5071157;28;20570;-69
2022/02/21 03:25:13;;;;;;;7.20;4.68;;;3.50;99.90;;;;;;5071042;28;20160;-69
2022/02/21 03:27:44;;;;;;;6.40;3.88;;;3.60;99.90;;;;;;5071026;28;20184;-69
2022/02/21 03:30:11;;;;;;;6.60;4.10;;;3.60;99.90;;;;;;5071038;28;20255;-69
2022/02/21 03:32:38;;;;;;;6.65;3.95;;;3.60;99.90;;;;;;5070947;28;20199;-69
2022/02/21 03:35:05;;;;;;;7.22;4.40;;;3.50;99.90;;;;;;5070868;28;20188;-69
2022/02/21 03:37:32;;;;;;;7.85;5.38;;;3.50;99.90;;;;;;5070450;28;20219;-69
2022/02/21 03:39:58;;;;;;;8.73;4.75;;;3.60;99.90;;;;;;5070786;28;20250;-69
2022/02/21 03:42:24;;;;;;;10.13;5.18;;;3.70;99.90;;;;;;5069410;28;20232;-70
2022/02/21 03:44:50;;;;;;;7.72;4.47;;;3.70;99.90;;;;;;5070594;28;20637;-69
2022/02/21 03:47:16;;;;;;;10.73;4.72;;;3.70;99.90;;;;;;5070556;28;20192;-69
2022/02/21 03:49:42;;;;;;;7.30;3.78;;;3.70;99.90;;;;;;5069413;28;20169;-69
2022/02/21 03:52:08;;;;;;;6.65;4.30;;;3.70;99.90;;;;;;5070566;28;20161;-69
2022/02/21 03:54:34;;;;;;;11.73;5.72;;;3.60;99.90;;;;;;5070325;28;20185;-69
2022/02/21 03:57:00;;;;;;;17.77;9.25;;;3.60;99.90;;;;;;5070313;28;20652;-69
2022/02/21 03:59:25;;;;;;;7.25;5.97;;;3.60;99.90;;;;;;5068916;28;20211;-69
2022/02/21 04:01:52;;;;;;;8.20;4.40;;;3.60;99.90;;;;;;5070280;28;20210;-69
2022/02/21 04:04:18;;;;;;;6.88;4.50;;;3.70;99.90;;;;;;5070088;28;20220;-69
2022/02/21 04:06:44;;;;;;;10.30;4.78;;;3.70;99.90;;;;;;5070035;28;20223;-69
2022/02/21 04:09:10;;;;;;;6.13;4.47;;;3.60;99.90;;;;;;5070148;28;20156;-69
2022/02/21 04:11:36;;;;;;;7.20;3.85;;;3.60;99.90;;;;;;5068795;28;20198;-69
2022/02/21 04:14:02;;;;;;;8.45;3.90;;;3.60;99.90;;;;;;5070238;28;20168;-69
2022/02/21 04:16:32;;;;;;;7.85;3.92;;;3.60;99.90;;;;;;5070049;28;20665;-69
2022/02/21 04:18:59;;;;;;;9.65;4.47;;;3.60;99.90;;;;;;5082451;28;20203;-69
2022/02/21 04:21:25;;;;;;;8.35;4.07;;;3.60;99.90;;;;;;5076234;28;20244;-68
2022/02/21 04:23:51;;;;;;;5.95;3.63;;;3.50;99.90;;;;;;5070021;28;20173;-69
2022/02/21 04:26:16;;;;;;;6.80;3.85;;;3.50;99.90;;;;;;5069843;28;20204;-69
2022/02/21 04:28:42;;;;;;;8.43;4.57;;;3.50;99.90;;;;;;5069885;28;20199;-69
2022/02/21 04:31:09;;;;;;;8.60;4.35;;;3.50;99.90;;;;;;5069781;28;20570;-69
2022/02/21 04:33:35;;;;;;;6.43;4.15;;;3.40;99.90;;;;;;5069748;28;20157;-68
2022/02/21 04:36:01;;;;;;;6.00;4.07;;;3.40;99.90;;;;;;5069682;28;20227;-68
2022/02/21 04:38:27;;;;;;;8.45;4.55;;;3.40;99.90;;;;;;5069391;28;20161;-69
2022/02/21 04:40:53;;;;;;;6.55;4.05;;;3.40;99.90;;;;;;5069443;28;20160;-69
2022/02/21 04:43:19;;;;;;;7.88;4.07;;;3.50;99.90;;;;;;5069522;28;20168;-69
2022/02/21 04:45:45;;;;;;;9.13;4.60;;;3.50;99.90;;;;;;5069531;28;20183;-69
2022/02/21 04:48:11;;;;;;;8.70;4.88;;;3.50;99.90;;;;;;5069458;28;20157;-69
2022/02/21 04:50:37;;;;;;;8.13;4.18;;;3.50;99.90;;;;;;5067314;28;20169;-68
2022/02/21 04:53:03;;;;;;;7.45;4.30;;;3.50;99.90;;;;;;5067955;28;20169;-69
2022/02/21 04:55:29;;;;;;;7.63;4.55;;;3.60;99.90;;;;;;5068119;28;20179;-69
2022/02/21 04:57:55;;;;;;;6.22;4.28;;;3.60;99.90;;;;;;5069192;28;20266;-69
2022/02/21 05:00:21;;;;;;;7.00;4.30;;;3.70;99.90;;;;;;5069281;28;20199;-69
2022/02/21 05:02:46;;;;;;;9.40;4.60;;;3.70;99.90;;;;;;5068996;28;20588;-69
2022/02/21 05:05:12;;;;;;;6.20;3.85;;;3.80;99.90;;;;;;5068130;28;20210;-69
2022/02/21 05:07:43;;;;;;;9.45;4.53;;;3.80;99.90;;;;;;5067779;28;20251;-69
2022/02/21 05:10:09;;;;;;;10.05;4.00;;;3.80;99.90;;;;;;5069088;28;20179;-69
2022/02/21 05:12:36;;;;;;;11.88;4.50;;;3.70;99.90;;;;;;5069090;28;20168;-69
2022/02/21 05:15:03;;;;;;;6.25;4.18;;;3.60;99.90;;;;;;5069084;28;20176;-69
2022/02/21 05:17:29;;;;;;;9.60;5.78;;;3.60;99.90;;;;;;5068976;28;20192;-69
2022/02/21 05:19:56;;;;;;;9.38;5.18;;;3.70;99.90;;;;;;5079565;28;20250;-69
2022/02/21 05:22:21;;;;;;;9.88;5.28;;;3.70;99.90;;;;;;5068958;28;20231;-69
2022/02/21 05:24:48;;;;;;;9.55;4.53;;;3.70;99.90;;;;;;5069132;28;20285;-69
2022/02/21 05:27:14;;;;;;;13.85;6.25;;;3.80;99.90;;;;;;5068833;28;20195;-69
2022/02/21 05:29:40;;;;;;;11.07;5.97;;;3.80;99.90;;;;;;5068885;28;20165;-69
2022/02/21 05:32:08;;;;;;;9.70;4.85;;;3.70;99.90;;;;;;5068914;28;20617;-68
2022/02/21 05:34:34;;;;;;;9.40;4.85;;;3.80;99.90;;;;;;5068871;28;20179;-69
2022/02/21 05:37:00;;;;;;;8.00;4.45;;;3.70;99.90;;;;;;5068824;28;20196;-70
2022/02/21 05:39:26;;;;;;;8.98;5.45;;;3.80;99.90;;;;;;5068718;28;20200;-70
2022/02/21 05:41:52;;;;;;;8.82;4.90;;;3.80;99.90;;;;;;5068699;28;20153;-69
2022/02/21 05:44:17;;;;;;;10.52;5.88;;;3.80;99.90;;;;;;5068686;28;20622;-69
2022/02/21 05:46:44;;;;;;;12.50;5.35;;;3.80;99.90;;;;;;5068656;28;20192;-69
2022/02/21 05:49:11;;;;;;;12.88;4.85;;;3.80;99.90;;;;;;5068340;28;20168;-69
2022/02/21 05:51:38;;;;;;;12.63;5.63;;;3.80;99.90;;;;;;5068548;28;20541;-69
2022/02/21 05:54:04;;;;;;;8.38;5.38;;;3.80;99.90;;;;;;5068540;28;20528;-69
2022/02/21 05:56:30;;;;;;;10.65;5.22;;;3.80;99.90;;;;;;5067390;28;20254;-68
2022/02/21 05:58:56;;;;;;;12.38;5.75;;;3.80;99.90;;;;;;5068447;28;20193;-69
2022/02/21 06:01:22;;;;;;;10.07;5.00;;;3.90;99.90;;;;;;5079618;28;20180;-70
2022/02/21 06:03:48;;;;;;;7.85;4.90;;;4.00;99.90;;;;;;5092166;28;20303;-69
2022/02/21 06:06:14;;;;;;;8.55;5.35;;;3.90;99.90;;;;;;5090383;28;20203;-69
2022/02/21 06:08:40;;;;;;;15.13;6.15;;;3.90;99.90;;;;;;5087615;28;20193;-69
2022/02/21 06:11:06;;;;;;;7.53;5.63;;;4.00;99.90;;;;;;5072134;28;20172;-69
2022/02/21 06:13:32;;;;;;;11.15;5.90;;;4.00;99.90;;;;;;5072119;28;20165;-70
2022/02/21 06:15:59;;;;;;;10.48;5.70;;;4.00;99.90;;;;;;5072141;28;20224;-70
2022/02/21 06:18:26;;;;;;;9.05;5.03;;;3.90;99.90;;;;;;5079458;28;20235;-69
2022/02/21 06:20:53;;;;;;;9.88;5.38;;;3.90;99.90;;;;;;5081213;28;20263;-69
2022/02/21 06:23:19;;;;;;;10.32;5.30;;;3.80;99.90;;;;;;5091676;28;20214;-69
2022/02/21 06:25:45;;;;;;;8.52;5.60;;;3.80;99.90;;;;;;5091798;28;20617;-69
2022/02/21 06:28:11;;;;;;;8.52;4.93;;;3.80;99.90;;;;;;5092032;28;20201;-70
2022/02/21 06:30:39;;;;;;;10.32;5.60;;;3.80;99.90;;;;;;5082758;28;20176;-69
2022/02/21 06:33:05;;;;;;;9.23;5.63;;;3.80;99.90;;;;;;5071695;28;20236;-69
2022/02/21 06:35:32;;;;;;;7.93;4.75;;;3.90;99.90;;;;;;5071761;28;20168;-69
2022/02/21 06:37:59;;;;;;;11.82;4.65;;;3.90;99.90;;;;;;5071503;28;20189;-69
2022/02/21 06:40:29;;;;;;;15.15;4.90;;;4.00;99.90;;;;;;5071669;28;20273;-68
2022/02/21 06:42:55;;;;;;;8.80;4.00;;;4.00;99.90;;;;;;5071323;28;20157;-69
2022/02/21 06:45:22;;;;;;;7.53;4.55;;;4.00;99.90;;;;;;5071646;28;20177;-69
2022/02/21 06:47:47;;;;;;;12.10;5.05;;;4.00;99.90;;;;;;5071279;28;20199;-70
2022/02/21 06:50:13;;;;;;;8.30;3.83;;;4.20;99.90;;;;;;5071595;28;20188;-69
2022/02/21 06:52:39;;;;;;;13.90;4.72;;;4.20;99.90;;;;;;5071472;28;20165;-70
2022/02/21 06:55:06;;;;;;;8.43;4.68;;;4.20;99.90;;;;;;5071382;28;20164;-70
2022/02/21 06:57:32;;;;;;;7.70;3.92;;;4.30;99.90;;;;;;5071381;28;20219;-69
2022/02/21 06:59:58;;;;;;;6.30;3.85;;;4.30;99.90;;;;;;5071335;28;20220;-69
2022/02/21 07:02:24;;;;;;;11.02;4.07;;;4.40;99.90;;;;;;5071002;28;20161;-70
2022/02/21 07:04:50;;;;;;;6.65;3.17;;;4.50;99.90;;;;;;5071309;28;20176;-70
2022/02/21 07:07:16;;;;;;;9.85;3.40;;;4.60;99.90;;;;;;5071106;28;20187;-69
2022/02/21 07:09:42;;;;;;;6.18;3.15;;;4.70;99.90;;;;;;5071158;28;20228;-70
2022/02/21 07:12:08;;;;;;;10.07;2.95;;;4.70;99.90;;;;;;5070500;28;20161;-69
2022/02/21 07:14:34;;;;;;;7.63;2.90;;;4.90;99.90;;;;;;5080084;28;20175;-69
2022/02/21 07:17:00;;;;;;;5.68;3.25;;;4.90;99.90;;;;;;5090691;28;20211;-68
2022/02/21 07:19:27;;;;;;;8.07;3.85;;;4.90;99.90;;;;;;5090701;28;20214;-69
2022/02/21 07:21:53;;;;;;;6.20;3.40;;;5.00;99.90;;;;;;5089748;28;20172;-68
2022/02/21 07:24:19;;;;;;;14.25;4.68;;;5.00;99.90;;;;;;5089911;28;20331;-68
2022/02/21 07:26:45;;;;;;;10.68;2.85;;;5.00;99.90;;;;;;5089572;28;20161;-69
2022/02/21 07:29:11;;;;;;;7.95;2.97;;;5.20;99.90;;;;;;5089691;28;20176;-68
2022/02/21 07:31:38;;;;;;;7.28;2.50;;;5.20;99.90;;;;;;5090041;28;20164;-72
2022/02/21 07:34:04;;;;;;;5.75;2.65;;;5.30;99.90;;;;;;5089882;28;20164;-71
2022/02/21 07:36:31;;;;;;;7.35;2.83;;;5.40;99.90;;;;;;5090501;28;20163;-71
2022/02/21 07:38:57;;;;;;;6.45;2.55;;;5.50;99.90;;;;;;5090247;28;20199;-70
2022/02/21 07:41:23;;;;;;;7.50;2.95;;;5.50;99.90;;;;;;5090522;28;20163;-70
2022/02/21 07:43:49;;;;;;;9.75;3.28;;;5.50;99.90;;;;;;5090676;28;20176;-71
2022/02/21 07:46:15;;;;;;;10.20;3.75;;;5.50;99.90;;;;;;5090219;28;20152;-70
2022/02/21 07:48:41;;;;;;;13.57;3.72;;;5.50;99.90;;;;;;5090038;28;20194;-69
2022/02/21 07:51:07;;;;;;;9.85;3.78;;;5.60;99.90;;;;;;5087681;28;20175;-69
2022/02/21 07:53:33;;;;;;;8.15;3.05;;;5.60;99.90;;;;;;5090484;28;20219;-69
2022/02/21 07:55:59;;;;;;;3.67;2.47;;;5.70;99.90;;;;;;5090216;28;20168;-69
2022/02/21 07:58:25;;;;;;;17.00;3.97;;;5.70;99.90;;;;;;5090178;28;20191;-69
2022/02/21 08:00:51;;;;;;;11.43;3.33;;;5.80;99.90;;;;;;5090176;28;20156;-68
2022/02/21 08:03:17;;;;;;;7.93;3.30;;;5.80;99.90;;;;;;5089926;28;20238;-69
2022/02/21 08:05:44;;;;;;;5.78;1.95;;;5.80;99.90;;;;;;5088894;28;20168;-69
2022/02/21 08:08:10;;;;;;;10.80;3.17;;;5.80;99.90;;;;;;5077341;28;20286;-69
2022/02/21 08:10:36;;;;;;;13.73;3.13;;;5.90;99.90;;;;;;5069893;28;20152;-69
2022/02/21 08:13:02;;;;;;;6.82;2.58;;;5.90;99.90;;;;;;5069914;28;20172;-69
2022/02/21 08:15:29;;;;;;;4.18;2.00;;;5.90;99.90;;;;;;5070008;28;20165;-69
2022/02/21 08:17:55;;;;;;;8.07;3.55;;;6.10;99.90;;;;;;5069855;28;20196;-69
2022/02/21 08:20:24;;;;;;;6.65;2.80;;;6.20;99.90;;;;;;5068507;28;20196;-70
2022/02/21 08:22:51;;;;;;;15.82;3.40;;;6.20;99.90;;;;;;5081287;28;20254;-70
2022/02/21 08:25:18;;;;;;;8.10;3.05;;;6.30;99.90;;;;;;5089755;28;20149;-69
2022/02/21 08:27:45;;;;;;;7.65;3.53;;;6.40;99.90;;;;;;5089646;28;20187;-69
2022/02/21 08:30:12;;;;;;;14.80;3.58;;;6.50;99.90;;;;;;5089764;28;20156;-69
2022/02/21 08:32:39;;;;;;;15.30;3.45;;;6.40;99.90;;;;;;5088199;28;20172;-68
2022/02/21 08:35:07;;;;;;;10.35;4.20;;;6.60;99.90;;;;;;5089692;28;20163;-69
2022/02/21 08:37:33;;;;;;;16.13;3.88;;;6.60;99.90;;;;;;5089439;28;20192;-69
2022/02/21 08:39:59;;;;;;;10.40;3.88;;;6.40;99.90;;;;;;5088300;28;20263;-69
2022/02/21 08:42:25;;;;;;;12.73;4.85;;;6.40;99.90;;;;;;5089576;28;20156;-69
2022/02/21 08:44:51;;;;;;;14.90;5.68;;;6.40;99.90;;;;;;5089309;28;20191;-69
2022/02/21 08:47:17;;;;;;;12.20;5.13;;;6.40;99.90;;;;;;5089360;28;20184;-68
2022/02/21 08:49:44;;;;;;;8.60;4.55;;;6.30;99.90;;;;;;5089353;28;20168;-69
2022/02/21 08:52:10;;;;;;;8.35;3.00;;;6.30;99.90;;;;;;5089206;28;20168;-68
2022/02/21 08:54:36;;;;;;;10.18;4.57;;;6.30;99.90;;;;;;5089482;28;20218;-68
2022/02/21 08:57:06;;;;;;;14.55;4.28;;;6.30;99.90;;;;;;5089254;28;20175;-69
2022/02/21 08:59:32;;;;;;;7.85;4.07;;;6.30;99.90;;;;;;5089287;28;20192;-70
2022/02/21 09:01:58;;;;;;;16.00;3.90;;;6.30;99.90;;;;;;5089345;28;20557;-70
2022/02/21 09:04:24;;;;;;;15.07;4.60;;;6.30;99.90;;;;;;5089048;28;20240;-70
2022/02/21 09:06:51;;;;;;;8.90;4.38;;;6.20;99.90;;;;;;5089249;28;20180;-70
2022/02/21 09:09:18;;;;;;;13.45;4.68;;;6.20;99.90;;;;;;5083261;28;20175;-71
2022/02/21 09:11:45;;;;;;;18.00;5.60;;;6.10;99.90;;;;;;5069116;28;20202;-71
2022/02/21 09:14:11;;;;;;;17.98;5.28;;;5.90;99.90;;;;;;5069019;28;20153;-70
2022/02/21 09:16:37;;;;;;;14.30;5.65;;;6.00;99.90;;;;;;5069074;28;20168;-70
2022/02/21 09:19:04;;;;;;;17.85;5.68;;;5.90;99.90;;;;;;5068614;28;20211;-70
2022/02/21 09:21:29;;;;;;;6.93;5.00;;;6.00;99.90;;;;;;5069056;28;20248;-69
2022/02/21 09:23:55;;;;;;;10.93;4.95;;;6.10;99.90;;;;;;5089022;28;20160;-69
2022/02/21 09:26:21;;;;;;;8.63;4.53;;;6.20;99.90;;;;;;5088993;28;20160;-68
2022/02/21 09:28:48;;;;;;;10.82;4.75;;;6.20;99.90;;;;;;5088841;28;20192;-69
2022/02/21 09:31:14;;;;;;;8.38;4.18;;;6.30;99.90;;;;;;5088938;28;20191;-68
2022/02/21 09:33:40;;;;;;;14.43;5.13;;;6.50;99.90;;;;;;5071644;28;20214;-69
2022/02/21 09:36:06;;;;;;;9.13;5.03;;;6.80;99.90;;;;;;5087463;28;20179;-70
2022/02/21 09:38:32;;;;;;;10.98;4.57;;;6.90;99.90;;;;;;5092927;28;20167;-69
2022/02/21 09:40:58;;;;;;;12.32;4.38;;;6.90;99.90;;;;;;5087659;28;20175;-68
2022/02/21 09:43:29;;;;;;;12.35;5.50;;;7.10;99.90;;;;;;5081464;28;21032;-69
2022/02/21 09:46:05;;;;;;;12.35;6.38;;;7.20;99.90;;;;;;5072785;28;20196;-69
2022/02/21 09:48:32;;;;;;;15.70;5.55;;;7.20;99.90;;;;;;5071161;28;20177;-69
2022/02/21 09:51:00;;;;;;;11.52;4.60;;;7.40;99.90;;;;;;5072476;28;20164;-68
2022/02/21 09:53:28;;;;;;;11.45;4.85;;;7.50;99.90;;;;;;5070757;28;20259;-69
2022/02/21 09:55:55;;;;;;;7.30;3.78;;;7.60;99.90;;;;;;5072467;28;20153;-69
2022/02/21 09:58:21;;;;;;;9.68;5.32;;;7.70;99.90;;;;;;5072305;28;20536;-69
2022/02/21 10:00:47;;;;;;;7.43;4.43;;;8.10;99.90;;;;;;5071052;28;20228;-69
2022/02/21 10:03:18;;;;;;;9.90;4.05;;;8.50;99.90;;;;;;5070159;28;20335;-70
2022/02/21 10:05:48;;;;;;;6.25;3.63;;;8.90;99.90;;;;;;5072340;28;20153;-69
2022/02/21 10:08:15;;;;;;;8.05;4.20;;;8.90;99.90;;;;;;5070653;28;20187;-69
2022/02/21 10:10:41;;;;;;;9.95;4.30;;;8.90;99.90;;;;;;5072353;28;20153;-69
2022/02/21 10:13:07;;;;;;;6.47;4.00;;;9.10;99.90;;;;;;5071759;28;20153;-69
2022/02/21 10:15:37;;;;;;;5.32;4.20;;;9.00;99.90;;;;;;5072161;28;20649;-69
2022/02/21 10:18:18;;;;;;;7.82;4.65;;;8.90;99.90;;;;;;5071842;28;20562;-69
2022/02/21 10:20:57;;;;;;;5.97;3.78;;;8.60;99.90;;;;;;5079953;28;20219;-69
2022/02/21 10:23:25;;;;;;;10.73;4.45;;;8.40;99.90;;;;;;5091484;28;20199;-69
2022/02/21 10:25:56;;;;;;;13.38;5.15;;;8.40;99.90;;;;;;5092083;28;20156;-68
2022/02/21 10:28:28;;;;;;;10.88;5.20;;;8.10;99.90;;;;;;5091592;28;20231;-69
2022/02/21 10:31:17;;;;;;;9.82;4.45;;;8.00;99.90;;;;;;5091723;28;20303;-69
2022/02/21 10:34:00;;;;;;;10.85;4.32;;;7.90;99.90;;;;;;5091329;28;20192;-69
2022/02/21 10:36:37;;;;;;;8.73;3.97;;;8.50;99.90;;;;;;5091884;28;20616;-69
2022/02/21 10:39:12;;;;;;;8.57;4.03;;;9.10;99.90;;;;;;5091493;28;20553;-69
2022/02/21 10:41:45;;;;;;;11.40;3.97;;;10.00;99.90;;;;;;5091812;28;20159;-70
2022/02/21 10:44:30;;;;;;;7.07;3.70;;;10.40;99.90;;;;;;5091205;28;20191;-70
2022/02/21 10:47:14;;;;;;;11.30;4.25;;;11.30;99.90;;;;;;5091096;28;20172;-69
2022/02/21 10:49:52;;;;;;;14.18;5.22;;;11.60;99.90;;;;;;5091334;28;20171;-70
2022/02/21 10:52:22;;;;;;;5.40;3.33;;;11.70;99.90;;;;;;5091173;28;20159;-68
2022/02/21 10:54:49;;;;;;;7.57;3.17;;;11.60;99.90;;;;;;5091218;28;20191;-70
2022/02/21 10:57:17;;;;;;;13.43;2.38;;;11.10;99.90;;;;;;5091487;28;20164;-70
2022/02/21 10:59:43;;;;;;;5.50;3.45;;;10.40;99.90;;;;;;5091028;28;20180;-70
2022/02/21 11:02:14;;;;;;;6.78;3.25;;;10.10;99.90;;;;;;5090965;28;20149;-70
2022/02/21 11:04:41;;;;;;;8.57;3.85;;;10.30;99.90;;;;;;5091095;28;20728;-70
2022/02/21 11:07:08;;;;;;;8.45;3.83;;;10.50;99.90;;;;;;5091505;28;20161;-70
2022/02/21 11:09:36;;;;;;;5.43;2.70;;;10.30;99.90;;;;;;5090927;28;20175;-70
2022/02/21 11:12:04;;;;;;;9.15;1.70;;;10.20;99.90;;;;;;5090894;28;20643;-69
2022/02/21 11:14:32;;;;;;;1.25;0.80;;;10.60;99.90;;;;;;5089668;28;20206;-69
2022/02/21 11:17:01;;;;;;;4.13;0.68;;;10.70;99.90;;;;;;5091227;28;20191;-69
2022/02/21 11:19:27;;;;;;;0.70;0.40;;;10.60;99.90;;;;;;5090823;28;20188;-69
2022/02/21 11:21:53;;;;;;;1.35;0.30;;;10.40;99.90;;;;;;5075236;28;20200;-69
2022/02/21 11:24:28;;;;;;;4.10;0.38;;;10.30;99.90;;;;;;5090599;28;20604;-69
2022/02/21 11:27:18;;;;;;;3.50;0.30;;;10.10;99.90;;;;;;5091069;28;20158;-69
2022/02/21 11:29:58;;;;;;;0.43;0.30;;;9.80;99.90;;;;;;5090649;28;20184;-69
2022/02/21 11:32:24;;;;;;;0.20;0.20;;;9.60;99.90;;;;;;5090384;28;20167;-69
2022/02/21 11:35:11;;;;;;;4.72;0.30;;;9.50;99.90;;;;;;5090770;28;20199;-69
2022/02/21 11:37:38;;;;;;;0.60;0.15;;;9.40;99.90;;;;;;5090707;28;20156;-70
2022/02/21 11:40:06;;;;;;;3.80;0.10;;;9.30;99.90;;;;;;5090381;28;20215;-69
2022/02/21 11:42:36;;;;;;;0.15;0.10;;;9.20;99.90;;;;;;5089961;28;20153;-69
2022/02/21 11:45:26;;;;;;;0.35;0.15;;;9.20;99.90;;;;;;5090410;28;20201;-69
2022/02/21 11:47:57;;;;;;;1.27;0.20;;;9.20;99.90;;;;;;5090053;28;20245;-69
2022/02/21 11:50:31;;;;;;;1.38;0.40;;;9.20;99.90;;;;;;5090284;28;20157;-70
2022/02/21 11:53:28;;;;;;;0.28;0.10;;;9.10;99.90;;;;;;5089936;28;20164;-69
2022/02/21 11:55:55;;;;;;;0.32;0.20;;;9.10;99.90;;;;;;5090315;28;20605;-69
2022/02/21 11:58:24;;;;;;;0.10;0.10;;;9.00;99.90;;;;;;5089897;28;20160;-70
2022/02/21 12:00:51;;;;;;;0.65;0.20;;;9.00;99.90;;;;;;5089864;28;20199;-69
2022/02/21 12:03:21;;;;;;;0.98;0.30;;;8.90;99.90;;;;;;5089277;28;20219;-69
2022/02/21 12:05:50;;;;;;;0.20;0.20;;;8.80;99.90;;;;;;5089859;28;20175;-69
2022/02/21 12:08:28;;;;;;;0.55;0.17;;;8.80;99.90;;;;;;5090031;28;20167;-69
2022/02/21 12:11:17;;;;;;;0.95;0.20;;;8.70;99.90;;;;;;5089264;28;20160;-69
2022/02/21 12:13:47;;;;;;;1.23;0.13;;;8.60;99.90;;;;;;5088942;28;20180;-69
2022/02/21 12:16:14;;;;;;;1.40;0.60;;;8.60;99.90;;;;;;5090070;28;20159;-69
2022/02/21 12:18:42;;;;;;;0.22;0.10;;;8.60;99.90;;;;;;5089591;28;20161;-69
2022/02/21 12:21:29;;;;;;;2.90;0.40;;;8.60;99.90;;;;;;5078177;28;20161;-69
2022/02/21 12:23:55;;;;;;;0.10;0.10;;;8.50;99.90;;;;;;5071147;28;20200;-69
2022/02/21 12:26:25;;;;;;;0.55;0.30;;;8.40;99.90;;;;;;5069654;28;20618;-69
2022/02/21 12:29:16;;;;;;;2.50;0.20;;;8.30;99.90;;;;;;5069758;28;20153;-69
2022/02/21 12:32:01;;;;;;;0.10;0.10;;;8.30;99.90;;;;;;5069592;28;20169;-70
2022/02/21 12:34:30;;;;;;;1.20;0.40;;;8.20;99.90;;;;;;5069509;28;20203;-68
2022/02/21 12:37:02;;;;;;;4.18;0.40;;;8.20;99.90;;;;;;5068096;28;20203;-69
2022/02/21 12:39:36;;;;;;;2.42;0.45;;;8.10;99.90;;;;;;5069414;28;20607;-69
2022/02/21 12:42:03;;;;;;;1.20;0.40;;;8.10;99.90;;;;;;5069433;28;20164;-69
2022/02/21 12:44:29;;;;;;;0.68;0.20;;;8.20;99.90;;;;;;5069454;28;20192;-70
2022/02/21 12:46:58;;;;;;;3.63;0.40;;;8.30;99.90;;;;;;5069421;28;20157;-69
2022/02/21 12:49:31;;;;;;;0.10;0.10;;;8.30;98.60;;;;;;5069443;28;20161;-69
2022/02/21 12:52:07;;;;;;;0.10;0.10;;;8.30;99.30;;;;;;5069429;28;20527;-69
2022/02/21 12:54:34;;;;;;;0.15;0.13;;;8.40;98.00;;;;;;5069135;28;20187;-69